Portada
METAR-TAF:

METAR-TAF

Aeropuertos :

Aeropuerto Internacional Juan Vicente Gómez

San Antonio del Táchira, Venezuela

latitud: 07-51N, longitud: 072-27W, altitud: 377 m

Observación

El informe se hizo hace 16 horas y 19 minutos, a las 22:00 UTC
Temperatura 29°C
Humedad 84%
Presión 1010 hPa
Visibilidad 10 km o más
Cielo nuboso a una altura de 2000 ft

METAR: SVSA 132200Z /////KT 9999 BKN020 29/26 Q1010

Hora: 10:19 (14:19 UTC)

Pronóstico

El informe se hizo hace 10 horas y 19 minutos, a las 04:00 UTC
Pronóstico válido del 14 a las 06 UTC al 15 a las 06 UTC
Viento kt del norte
Visibilidad 10 km o más
Nubes dispersas a una altura de 2000 ft
Evolucionando progresivamente
del 14 a las 06 UTC al 14 a las 10 UTC
Visibilidad: 8000 m
Cielo nuboso a una altura de 2000 ft
llovizna

TAF: SVSA 140400Z 1406/1506 00000KT 9999 SCT020 TX34/18Z TN25/08Z BECMG 1406/1410 8000 DZ BKN020

Observaciones y pronósticos meteorológicos de más de 4000 aeropuertos (mensajes METAR y TAF).

Los puntos amarillos y rojos representan las estaciones disponibles.

Ponga el ratón en el punto deseado para ver el nombre de la estación.

Haga clic para ver las observaciones y los pronósticos meteorológicos.

Para cambiar el mapa : haga clic en los botones verdes con una cruz de color negro para hacer un zoom, en el botón verde con un guión para alejar o en las flechas verdes para mapas adyacentes.


METAR-TAF: